sensor_id;sensor_type;location;lat;lon;timestamp;P1;durP1;ratioP1;P2;durP2;ratioP2
12445;SDS011;6287;50.984;7.022;2023-10-08T00:00:47;5.55;;;2.70;;
12445;SDS011;6287;50.984;7.022;2023-10-08T00:03:18;4.80;;;2.42;;
12445;SDS011;6287;50.984;7.022;2023-10-08T00:05:47;3.55;;;2.10;;
12445;SDS011;6287;50.984;7.022;2023-10-08T00:08:16;4.00;;;1.95;;
12445;SDS011;6287;50.984;7.022;2023-10-08T00:10:42;3.72;;;2.30;;
12445;SDS011;6287;50.984;7.022;2023-10-08T00:13:09;3.28;;;2.20;;
12445;SDS011;6287;50.984;7.022;2023-10-08T00:15:38;3.97;;;2.30;;
12445;SDS011;6287;50.984;7.022;2023-10-08T00:18:21;5.38;;;2.50;;
12445;SDS011;6287;50.984;7.022;2023-10-08T00:20:50;4.20;;;2.17;;
12445;SDS011;6287;50.984;7.022;2023-10-08T00:23:34;4.43;;;2.35;;
12445;SDS011;6287;50.984;7.022;2023-10-08T00:26:00;4.47;;;2.30;;
12445;SDS011;6287;50.984;7.022;2023-10-08T00:28:34;3.83;;;2.28;;
12445;SDS011;6287;50.984;7.022;2023-10-08T00:31:02;3.63;;;2.58;;
12445;SDS011;6287;50.984;7.022;2023-10-08T00:33:42;4.30;;;2.55;;
12445;SDS011;6287;50.984;7.022;2023-10-08T00:36:09;6.90;;;2.63;;
12445;SDS011;6287;50.984;7.022;2023-10-08T00:38:48;4.10;;;2.40;;
12445;SDS011;6287;50.984;7.022;2023-10-08T00:41:24;4.00;;;2.20;;
12445;SDS011;6287;50.984;7.022;2023-10-08T00:43:53;3.88;;;2.33;;
12445;SDS011;6287;50.984;7.022;2023-10-08T00:46:24;6.30;;;3.35;;
12445;SDS011;6287;50.984;7.022;2023-10-08T00:49:00;4.82;;;2.88;;
12445;SDS011;6287;50.984;7.022;2023-10-08T00:51:46;3.63;;;2.30;;
12445;SDS011;6287;50.984;7.022;2023-10-08T00:54:24;3.95;;;2.10;;
12445;SDS011;6287;50.984;7.022;2023-10-08T00:56:53;7.93;;;2.53;;
12445;SDS011;6287;50.984;7.022;2023-10-08T00:59:26;3.58;;;2.75;;
12445;SDS011;6287;50.984;7.022;2023-10-08T01:01:58;4.38;;;2.50;;
12445;SDS011;6287;50.984;7.022;2023-10-08T01:04:31;6.10;;;2.67;;
12445;SDS011;6287;50.984;7.022;2023-10-08T01:06:59;5.32;;;2.40;;
12445;SDS011;6287;50.984;7.022;2023-10-08T01:09:35;3.50;;;2.17;;
12445;SDS011;6287;50.984;7.022;2023-10-08T01:14:51;4.30;;;2.60;;
12445;SDS011;6287;50.984;7.022;2023-10-08T01:17:29;3.22;;;2.03;;
12445;SDS011;6287;50.984;7.022;2023-10-08T01:19:57;4.40;;;2.55;;
12445;SDS011;6287;50.984;7.022;2023-10-08T01:22:34;3.67;;;2.28;;
12445;SDS011;6287;50.984;7.022;2023-10-08T01:25:04;3.03;;;2.25;;
12445;SDS011;6287;50.984;7.022;2023-10-08T01:27:31;3.72;;;2.30;;
12445;SDS011;6287;50.984;7.022;2023-10-08T01:30:02;2.58;;;2.25;;
12445;SDS011;6287;50.984;7.022;2023-10-08T01:32:42;3.28;;;2.10;;
12445;SDS011;6287;50.984;7.022;2023-10-08T01:35:08;5.20;;;2.67;;
12445;SDS011;6287;50.984;7.022;2023-10-08T01:37:50;3.47;;;2.53;;
12445;SDS011;6287;50.984;7.022;2023-10-08T01:40:21;3.37;;;2.47;;
12445;SDS011;6287;50.984;7.022;2023-10-08T01:42:46;6.10;;;2.17;;
12445;SDS011;6287;50.984;7.022;2023-10-08T01:45:19;3.37;;;2.40;;
12445;SDS011;6287;50.984;7.022;2023-10-08T01:47:49;4.18;;;2.40;;
12445;SDS011;6287;50.984;7.022;2023-10-08T01:50:16;4.15;;;2.47;;
12445;SDS011;6287;50.984;7.022;2023-10-08T01:52:48;5.47;;;2.53;;
12445;SDS011;6287;50.984;7.022;2023-10-08T01:55:14;4.25;;;2.60;;
12445;SDS011;6287;50.984;7.022;2023-10-08T01:57:46;4.53;;;2.47;;
12445;SDS011;6287;50.984;7.022;2023-10-08T02:00:13;4.57;;;2.60;;
12445;SDS011;6287;50.984;7.022;2023-10-08T02:02:47;5.67;;;2.53;;
12445;SDS011;6287;50.984;7.022;2023-10-08T02:05:17;4.80;;;2.67;;
12445;SDS011;6287;50.984;7.022;2023-10-08T02:07:47;4.53;;;2.70;;
12445;SDS011;6287;50.984;7.022;2023-10-08T02:10:13;4.10;;;2.87;;
12445;SDS011;6287;50.984;7.022;2023-10-08T02:12:39;7.13;;;2.37;;
12445;SDS011;6287;50.984;7.022;2023-10-08T02:15:06;3.10;;;2.40;;
12445;SDS011;6287;50.984;7.022;2023-10-08T02:17:32;4.43;;;2.60;;
12445;SDS011;6287;50.984;7.022;2023-10-08T02:19:58;6.90;;;2.70;;
12445;SDS011;6287;50.984;7.022;2023-10-08T02:22:24;5.73;;;2.63;;
12445;SDS011;6287;50.984;7.022;2023-10-08T02:24:49;3.43;;;2.30;;
12445;SDS011;6287;50.984;7.022;2023-10-08T02:27:15;4.30;;;2.50;;
12445;SDS011;6287;50.984;7.022;2023-10-08T02:29:41;2.80;;;2.10;;
12445;SDS011;6287;50.984;7.022;2023-10-08T02:32:07;3.80;;;2.87;;
12445;SDS011;6287;50.984;7.022;2023-10-08T02:34:35;5.03;;;2.90;;
12445;SDS011;6287;50.984;7.022;2023-10-08T02:37:01;3.05;;;2.13;;
12445;SDS011;6287;50.984;7.022;2023-10-08T02:39:28;3.80;;;2.30;;
12445;SDS011;6287;50.984;7.022;2023-10-08T02:41:56;4.03;;;2.40;;
12445;SDS011;6287;50.984;7.022;2023-10-08T02:44:24;4.57;;;2.50;;
12445;SDS011;6287;50.984;7.022;2023-10-08T02:46:50;3.53;;;2.43;;
12445;SDS011;6287;50.984;7.022;2023-10-08T02:49:18;4.73;;;2.70;;
12445;SDS011;6287;50.984;7.022;2023-10-08T02:51:57;6.53;;;2.63;;
12445;SDS011;6287;50.984;7.022;2023-10-08T02:54:29;3.43;;;2.50;;
12445;SDS011;6287;50.984;7.022;2023-10-08T02:57:01;3.77;;;2.27;;
12445;SDS011;6287;50.984;7.022;2023-10-08T02:59:35;5.63;;;2.57;;
12445;SDS011;6287;50.984;7.022;2023-10-08T03:02:12;3.67;;;2.50;;
12445;SDS011;6287;50.984;7.022;2023-10-08T03:04:46;6.27;;;3.27;;
12445;SDS011;6287;50.984;7.022;2023-10-08T03:07:17;5.53;;;2.53;;
12445;SDS011;6287;50.984;7.022;2023-10-08T03:09:57;4.60;;;2.70;;
12445;SDS011;6287;50.984;7.022;2023-10-08T03:12:29;5.60;;;2.67;;
12445;SDS011;6287;50.984;7.022;2023-10-08T03:15:07;3.53;;;2.53;;
12445;SDS011;6287;50.984;7.022;2023-10-08T03:17:53;4.40;;;2.40;;
12445;SDS011;6287;50.984;7.022;2023-10-08T03:20:19;6.10;;;2.63;;
12445;SDS011;6287;50.984;7.022;2023-10-08T03:23:06;5.57;;;2.57;;
12445;SDS011;6287;50.984;7.022;2023-10-08T03:25:38;3.57;;;2.30;;
12445;SDS011;6287;50.984;7.022;2023-10-08T03:28:10;4.60;;;2.50;;
12445;SDS011;6287;50.984;7.022;2023-10-08T03:30:39;3.93;;;2.63;;
12445;SDS011;6287;50.984;7.022;2023-10-08T03:33:25;5.97;;;2.60;;
12445;SDS011;6287;50.984;7.022;2023-10-08T03:35:56;2.90;;;2.40;;
12445;SDS011;6287;50.984;7.022;2023-10-08T03:38:25;5.57;;;2.57;;
12445;SDS011;6287;50.984;7.022;2023-10-08T03:41:09;4.17;;;2.30;;
12445;SDS011;6287;50.984;7.022;2023-10-08T03:43:41;5.30;;;2.33;;
12445;SDS011;6287;50.984;7.022;2023-10-08T03:46:19;4.97;;;2.63;;
12445;SDS011;6287;50.984;7.022;2023-10-08T03:48:51;4.63;;;2.60;;
12445;SDS011;6287;50.984;7.022;2023-10-08T03:51:18;3.90;;;2.50;;
12445;SDS011;6287;50.984;7.022;2023-10-08T03:53:49;3.77;;;2.57;;
12445;SDS011;6287;50.984;7.022;2023-10-08T03:56:40;6.93;;;2.67;;
12445;SDS011;6287;50.984;7.022;2023-10-08T03:59:14;3.53;;;2.53;;
12445;SDS011;6287;50.984;7.022;2023-10-08T04:02:06;4.43;;;2.23;;
12445;SDS011;6287;50.984;7.022;2023-10-08T04:04:58;4.07;;;2.53;;
12445;SDS011;6287;50.984;7.022;2023-10-08T04:07:39;5.43;;;2.33;;
12445;SDS011;6287;50.984;7.022;2023-10-08T04:10:28;5.33;;;2.90;;
12445;SDS011;6287;50.984;7.022;2023-10-08T04:13:07;4.33;;;2.47;;
12445;SDS011;6287;50.984;7.022;2023-10-08T04:15:39;5.30;;;2.70;;
12445;SDS011;6287;50.984;7.022;2023-10-08T04:18:09;2.80;;;2.30;;
12445;SDS011;6287;50.984;7.022;2023-10-08T04:20:35;3.23;;;2.47;;
12445;SDS011;6287;50.984;7.022;2023-10-08T04:23:06;3.37;;;2.23;;
12445;SDS011;6287;50.984;7.022;2023-10-08T04:25:46;5.93;;;2.70;;
12445;SDS011;6287;50.984;7.022;2023-10-08T04:28:21;3.37;;;2.50;;
12445;SDS011;6287;50.984;7.022;2023-10-08T04:30:47;3.20;;;2.03;;
12445;SDS011;6287;50.984;7.022;2023-10-08T04:33:19;6.07;;;2.50;;
12445;SDS011;6287;50.984;7.022;2023-10-08T04:35:45;4.33;;;2.60;;
12445;SDS011;6287;50.984;7.022;2023-10-08T04:38:19;5.47;;;2.70;;
12445;SDS011;6287;50.984;7.022;2023-10-08T04:40:55;4.80;;;2.50;;
12445;SDS011;6287;50.984;7.022;2023-10-08T04:43:26;4.70;;;2.80;;
12445;SDS011;6287;50.984;7.022;2023-10-08T04:45:58;3.47;;;2.63;;
12445;SDS011;6287;50.984;7.022;2023-10-08T04:48:24;5.07;;;2.47;;
12445;SDS011;6287;50.984;7.022;2023-10-08T04:50:51;5.97;;;2.50;;
12445;SDS011;6287;50.984;7.022;2023-10-08T04:53:27;4.27;;;2.63;;
12445;SDS011;6287;50.984;7.022;2023-10-08T04:55:58;4.77;;;2.57;;
12445;SDS011;6287;50.984;7.022;2023-10-08T04:58:39;5.40;;;3.17;;
12445;SDS011;6287;50.984;7.022;2023-10-08T05:01:08;5.63;;;2.53;;
12445;SDS011;6287;50.984;7.022;2023-10-08T05:03:49;4.87;;;2.53;;
12445;SDS011;6287;50.984;7.022;2023-10-08T05:06:25;6.00;;;2.80;;
12445;SDS011;6287;50.984;7.022;2023-10-08T05:09:12;3.73;;;2.30;;
12445;SDS011;6287;50.984;7.022;2023-10-08T05:11:44;6.30;;;2.80;;
12445;SDS011;6287;50.984;7.022;2023-10-08T05:14:19;6.30;;;2.73;;
12445;SDS011;6287;50.984;7.022;2023-10-08T05:16:57;4.63;;;2.80;;
12445;SDS011;6287;50.984;7.022;2023-10-08T05:19:38;3.63;;;2.43;;
12445;SDS011;6287;50.984;7.022;2023-10-08T05:22:10;5.33;;;2.70;;
12445;SDS011;6287;50.984;7.022;2023-10-08T05:24:49;4.63;;;2.70;;
12445;SDS011;6287;50.984;7.022;2023-10-08T05:27:34;5.70;;;2.80;;
12445;SDS011;6287;50.984;7.022;2023-10-08T05:30:16;5.97;;;2.60;;
12445;SDS011;6287;50.984;7.022;2023-10-08T05:32:55;5.03;;;2.43;;
12445;SDS011;6287;50.984;7.022;2023-10-08T05:35:40;5.00;;;2.80;;
12445;SDS011;6287;50.984;7.022;2023-10-08T05:38:11;4.63;;;2.40;;
12445;SDS011;6287;50.984;7.022;2023-10-08T05:40:43;5.27;;;2.47;;
12445;SDS011;6287;50.984;7.022;2023-10-08T05:43:30;3.37;;;2.60;;
12445;SDS011;6287;50.984;7.022;2023-10-08T05:46:09;4.40;;;2.50;;
12445;SDS011;6287;50.984;7.022;2023-10-08T05:51:46;7.50;;;3.27;;
12445;SDS011;6287;50.984;7.022;2023-10-08T05:54:32;5.93;;;3.50;;
12445;SDS011;6287;50.984;7.022;2023-10-08T05:57:01;7.77;;;4.40;;
12445;SDS011;6287;50.984;7.022;2023-10-08T05:59:37;7.30;;;4.47;;
12445;SDS011;6287;50.984;7.022;2023-10-08T06:02:39;7.30;;;4.20;;
12445;SDS011;6287;50.984;7.022;2023-10-08T06:05:11;7.90;;;3.67;;
12445;SDS011;6287;50.984;7.022;2023-10-08T06:10:27;6.70;;;3.27;;
12445;SDS011;6287;50.984;7.022;2023-10-08T06:18:23;4.97;;;2.80;;
12445;SDS011;6287;50.984;7.022;2023-10-08T06:20:56;5.43;;;2.97;;
12445;SDS011;6287;50.984;7.022;2023-10-08T06:23:37;6.40;;;2.63;;
12445;SDS011;6287;50.984;7.022;2023-10-08T06:26:06;4.87;;;2.97;;
12445;SDS011;6287;50.984;7.022;2023-10-08T06:28:35;4.47;;;2.80;;
12445;SDS011;6287;50.984;7.022;2023-10-08T06:31:07;5.57;;;2.70;;
12445;SDS011;6287;50.984;7.022;2023-10-08T06:33:48;5.80;;;3.10;;
12445;SDS011;6287;50.984;7.022;2023-10-08T06:36:14;5.87;;;3.40;;
12445;SDS011;6287;50.984;7.022;2023-10-08T06:38:41;4.13;;;2.80;;
12445;SDS011;6287;50.984;7.022;2023-10-08T06:41:13;5.20;;;2.73;;
12445;SDS011;6287;50.984;7.022;2023-10-08T06:43:43;6.23;;;3.00;;
12445;SDS011;6287;50.984;7.022;2023-10-08T06:46:28;4.23;;;2.43;;
12445;SDS011;6287;50.984;7.022;2023-10-08T06:48:58;5.17;;;2.73;;
12445;SDS011;6287;50.984;7.022;2023-10-08T06:51:27;7.13;;;3.10;;
12445;SDS011;6287;50.984;7.022;2023-10-08T06:53:55;6.23;;;3.03;;
12445;SDS011;6287;50.984;7.022;2023-10-08T06:56:26;6.03;;;2.80;;
12445;SDS011;6287;50.984;7.022;2023-10-08T06:58:56;5.63;;;3.10;;
12445;SDS011;6287;50.984;7.022;2023-10-08T07:01:24;7.87;;;3.00;;
12445;SDS011;6287;50.984;7.022;2023-10-08T07:04:03;6.10;;;2.93;;
12445;SDS011;6287;50.984;7.022;2023-10-08T07:06:37;4.80;;;3.10;;
12445;SDS011;6287;50.984;7.022;2023-10-08T07:09:04;6.33;;;2.50;;
12445;SDS011;6287;50.984;7.022;2023-10-08T07:11:31;3.90;;;2.80;;
12445;SDS011;6287;50.984;7.022;2023-10-08T07:14:04;6.70;;;3.00;;
12445;SDS011;6287;50.984;7.022;2023-10-08T07:16:33;4.77;;;3.00;;
12445;SDS011;6287;50.984;7.022;2023-10-08T07:19:01;7.90;;;3.30;;
12445;SDS011;6287;50.984;7.022;2023-10-08T07:21:28;4.87;;;2.87;;
12445;SDS011;6287;50.984;7.022;2023-10-08T07:23:57;6.67;;;3.10;;
12445;SDS011;6287;50.984;7.022;2023-10-08T07:26:27;4.47;;;2.90;;
12445;SDS011;6287;50.984;7.022;2023-10-08T07:29:11;6.07;;;3.10;;
12445;SDS011;6287;50.984;7.022;2023-10-08T07:31:40;4.87;;;2.83;;
12445;SDS011;6287;50.984;7.022;2023-10-08T07:34:13;5.32;;;2.95;;
12445;SDS011;6287;50.984;7.022;2023-10-08T07:36:54;5.30;;;2.60;;
12445;SDS011;6287;50.984;7.022;2023-10-08T07:39:22;6.30;;;2.90;;
12445;SDS011;6287;50.984;7.022;2023-10-08T07:41:51;5.27;;;2.80;;
12445;SDS011;6287;50.984;7.022;2023-10-08T07:44:25;4.87;;;3.00;;
12445;SDS011;6287;50.984;7.022;2023-10-08T07:46:54;6.75;;;2.97;;
12445;SDS011;6287;50.984;7.022;2023-10-08T07:49:23;8.40;;;3.38;;
12445;SDS011;6287;50.984;7.022;2023-10-08T07:51:55;3.78;;;2.78;;
12445;SDS011;6287;50.984;7.022;2023-10-08T07:54:23;7.00;;;3.10;;
12445;SDS011;6287;50.984;7.022;2023-10-08T07:56:53;6.32;;;3.05;;
12445;SDS011;6287;50.984;7.022;2023-10-08T07:59:40;5.57;;;3.25;;
12445;SDS011;6287;50.984;7.022;2023-10-08T08:02:07;7.30;;;3.03;;
12445;SDS011;6287;50.984;7.022;2023-10-08T08:04:40;6.05;;;3.05;;
12445;SDS011;6287;50.984;7.022;2023-10-08T08:07:15;4.07;;;2.85;;
12445;SDS011;6287;50.984;7.022;2023-10-08T08:09:49;4.28;;;2.92;;
12445;SDS011;6287;50.984;7.022;2023-10-08T08:12:23;6.78;;;3.08;;
12445;SDS011;6287;50.984;7.022;2023-10-08T08:14:57;4.60;;;2.90;;
12445;SDS011;6287;50.984;7.022;2023-10-08T08:17:28;5.63;;;3.17;;
12445;SDS011;6287;50.984;7.022;2023-10-08T08:19:56;6.63;;;3.17;;
12445;SDS011;6287;50.984;7.022;2023-10-08T08:22:26;4.72;;;2.70;;
12445;SDS011;6287;50.984;7.022;2023-10-08T08:24:56;3.72;;;2.72;;
12445;SDS011;6287;50.984;7.022;2023-10-08T08:27:42;6.22;;;3.08;;
12445;SDS011;6287;50.984;7.022;2023-10-08T08:30:18;4.47;;;2.83;;
12445;SDS011;6287;50.984;7.022;2023-10-08T08:32:45;6.20;;;2.80;;
12445;SDS011;6287;50.984;7.022;2023-10-08T08:35:12;4.45;;;3.00;;
12445;SDS011;6287;50.984;7.022;2023-10-08T08:37:44;7.00;;;2.80;;
12445;SDS011;6287;50.984;7.022;2023-10-08T08:40:11;5.38;;;2.70;;
12445;SDS011;6287;50.984;7.022;2023-10-08T08:42:44;6.45;;;3.10;;
12445;SDS011;6287;50.984;7.022;2023-10-08T08:45:13;6.65;;;3.22;;
12445;SDS011;6287;50.984;7.022;2023-10-08T08:47:48;4.35;;;2.90;;
12445;SDS011;6287;50.984;7.022;2023-10-08T08:50:16;6.55;;;3.00;;
12445;SDS011;6287;50.984;7.022;2023-10-08T08:52:42;6.65;;;3.10;;
12445;SDS011;6287;50.984;7.022;2023-10-08T08:55:10;3.53;;;2.58;;
12445;SDS011;6287;50.984;7.022;2023-10-08T08:57:43;8.25;;;3.28;;
12445;SDS011;6287;50.984;7.022;2023-10-08T09:00:12;5.45;;;2.83;;
12445;SDS011;6287;50.984;7.022;2023-10-08T09:02:39;7.95;;;3.50;;
12445;SDS011;6287;50.984;7.022;2023-10-08T09:05:10;8.45;;;3.10;;
12445;SDS011;6287;50.984;7.022;2023-10-08T09:07:58;7.03;;;3.15;;
12445;SDS011;6287;50.984;7.022;2023-10-08T09:10:35;5.65;;;3.45;;
12445;SDS011;6287;50.984;7.022;2023-10-08T09:13:18;5.30;;;2.83;;
12445;SDS011;6287;50.984;7.022;2023-10-08T09:15:48;5.57;;;3.38;;
12445;SDS011;6287;50.984;7.022;2023-10-08T09:18:17;8.23;;;3.78;;
12445;SDS011;6287;50.984;7.022;2023-10-08T09:20:48;10.35;;;3.30;;
12445;SDS011;6287;50.984;7.022;2023-10-08T09:23:20;8.02;;;3.30;;
12445;SDS011;6287;50.984;7.022;2023-10-08T09:25:49;6.28;;;3.30;;
12445;SDS011;6287;50.984;7.022;2023-10-08T09:28:15;7.30;;;3.35;;
12445;SDS011;6287;50.984;7.022;2023-10-08T09:30:43;7.18;;;3.38;;
12445;SDS011;6287;50.984;7.022;2023-10-08T09:33:15;6.68;;;3.08;;
12445;SDS011;6287;50.984;7.022;2023-10-08T09:35:47;6.53;;;3.20;;
12445;SDS011;6287;50.984;7.022;2023-10-08T09:38:13;7.85;;;3.60;;
12445;SDS011;6287;50.984;7.022;2023-10-08T09:40:49;9.15;;;4.10;;
12445;SDS011;6287;50.984;7.022;2023-10-08T09:43:20;7.18;;;3.75;;
12445;SDS011;6287;50.984;7.022;2023-10-08T09:45:47;7.13;;;3.88;;
12445;SDS011;6287;50.984;7.022;2023-10-08T09:48:20;8.23;;;3.55;;
12445;SDS011;6287;50.984;7.022;2023-10-08T09:50:55;13.20;;;4.60;;
12445;SDS011;6287;50.984;7.022;2023-10-08T09:53:57;10.52;;;4.55;;
12445;SDS011;6287;50.984;7.022;2023-10-08T09:56:21;9.52;;;4.38;;
12445;SDS011;6287;50.984;7.022;2023-10-08T09:58:47;8.88;;;4.53;;
12445;SDS011;6287;50.984;7.022;2023-10-08T10:01:17;14.07;;;5.10;;
12445;SDS011;6287;50.984;7.022;2023-10-08T10:03:45;14.43;;;5.38;;
12445;SDS011;6287;50.984;7.022;2023-10-08T10:06:14;9.50;;;4.50;;
12445;SDS011;6287;50.984;7.022;2023-10-08T10:08:42;12.20;;;5.45;;
12445;SDS011;6287;50.984;7.022;2023-10-08T10:11:09;15.02;;;5.10;;
12445;SDS011;6287;50.984;7.022;2023-10-08T10:13:39;10.32;;;4.25;;
12445;SDS011;6287;50.984;7.022;2023-10-08T10:16:09;7.10;;;3.88;;
12445;SDS011;6287;50.984;7.022;2023-10-08T10:18:36;14.30;;;5.00;;
12445;SDS011;6287;50.984;7.022;2023-10-08T10:31:37;8.60;;;3.92;;
12445;SDS011;6287;50.984;7.022;2023-10-08T10:34:07;10.48;;;4.45;;
12445;SDS011;6287;50.984;7.022;2023-10-08T10:36:36;12.50;;;4.85;;
12445;SDS011;6287;50.984;7.022;2023-10-08T10:39:04;8.68;;;4.90;;
12445;SDS011;6287;50.984;7.022;2023-10-08T10:41:45;9.60;;;4.57;;
12445;SDS011;6287;50.984;7.022;2023-10-08T10:44:12;10.20;;;4.45;;
12445;SDS011;6287;50.984;7.022;2023-10-08T10:46:41;9.77;;;4.40;;
12445;SDS011;6287;50.984;7.022;2023-10-08T10:49:10;9.30;;;4.28;;
12445;SDS011;6287;50.984;7.022;2023-10-08T10:51:41;10.55;;;4.47;;
12445;SDS011;6287;50.984;7.022;2023-10-08T10:54:09;10.23;;;4.47;;
12445;SDS011;6287;50.984;7.022;2023-10-08T10:56:35;7.03;;;4.10;;
12445;SDS011;6287;50.984;7.022;2023-10-08T10:59:14;8.50;;;4.35;;
12445;SDS011;6287;50.984;7.022;2023-10-08T11:01:52;8.60;;;4.82;;
12445;SDS011;6287;50.984;7.022;2023-10-08T11:04:30;11.25;;;5.53;;
12445;SDS011;6287;50.984;7.022;2023-10-08T11:06:56;9.52;;;4.63;;
12445;SDS011;6287;50.984;7.022;2023-10-08T11:09:26;8.38;;;4.70;;
12445;SDS011;6287;50.984;7.022;2023-10-08T11:12:02;9.10;;;4.30;;
12445;SDS011;6287;50.984;7.022;2023-10-08T11:14:36;13.63;;;4.75;;
12445;SDS011;6287;50.984;7.022;2023-10-08T11:17:12;9.93;;;5.90;;
12445;SDS011;6287;50.984;7.022;2023-10-08T11:19:47;9.38;;;4.70;;
12445;SDS011;6287;50.984;7.022;2023-10-08T11:22:16;10.57;;;4.75;;
12445;SDS011;6287;50.984;7.022;2023-10-08T11:24:47;8.18;;;5.10;;
12445;SDS011;6287;50.984;7.022;2023-10-08T11:27:17;9.80;;;4.72;;
12445;SDS011;6287;50.984;7.022;2023-10-08T11:29:53;13.52;;;5.35;;
12445;SDS011;6287;50.984;7.022;2023-10-08T11:32:23;11.15;;;5.00;;
12445;SDS011;6287;50.984;7.022;2023-10-08T11:35:00;8.43;;;4.57;;
12445;SDS011;6287;50.984;7.022;2023-10-08T11:37:44;11.88;;;5.80;;
12445;SDS011;6287;50.984;7.022;2023-10-08T11:40:22;12.27;;;5.07;;
12445;SDS011;6287;50.984;7.022;2023-10-08T11:42:53;11.15;;;5.55;;
12445;SDS011;6287;50.984;7.022;2023-10-08T11:45:22;11.23;;;5.57;;
12445;SDS011;6287;50.984;7.022;2023-10-08T11:48:09;12.05;;;5.70;;
12445;SDS011;6287;50.984;7.022;2023-10-08T11:50:38;11.18;;;5.53;;
12445;SDS011;6287;50.984;7.022;2023-10-08T11:53:04;11.05;;;5.47;;
12445;SDS011;6287;50.984;7.022;2023-10-08T11:55:36;7.95;;;4.63;;
12445;SDS011;6287;50.984;7.022;2023-10-08T11:58:06;13.30;;;6.43;;
12445;SDS011;6287;50.984;7.022;2023-10-08T12:00:41;10.20;;;5.85;;
12445;SDS011;6287;50.984;7.022;2023-10-08T12:03:11;12.05;;;5.05;;
12445;SDS011;6287;50.984;7.022;2023-10-08T12:05:50;10.45;;;5.60;;
12445;SDS011;6287;50.984;7.022;2023-10-08T12:08:24;10.43;;;4.53;;
12445;SDS011;6287;50.984;7.022;2023-10-08T12:10:54;10.98;;;4.88;;
12445;SDS011;6287;50.984;7.022;2023-10-08T12:13:25;9.43;;;4.85;;
12445;SDS011;6287;50.984;7.022;2023-10-08T12:15:56;9.80;;;4.78;;
12445;SDS011;6287;50.984;7.022;2023-10-08T12:18:31;12.35;;;5.32;;
12445;SDS011;6287;50.984;7.022;2023-10-08T12:21:11;10.20;;;5.25;;
12445;SDS011;6287;50.984;7.022;2023-10-08T12:23:40;8.02;;;4.45;;
12445;SDS011;6287;50.984;7.022;2023-10-08T12:26:10;8.95;;;4.43;;
12445;SDS011;6287;50.984;7.022;2023-10-08T12:28:43;9.43;;;4.93;;
12445;SDS011;6287;50.984;7.022;2023-10-08T12:31:12;10.15;;;5.22;;
12445;SDS011;6287;50.984;7.022;2023-10-08T12:33:40;13.57;;;6.18;;
12445;SDS011;6287;50.984;7.022;2023-10-08T12:36:10;10.82;;;5.38;;
12445;SDS011;6287;50.984;7.022;2023-10-08T12:38:42;10.98;;;5.47;;
12445;SDS011;6287;50.984;7.022;2023-10-08T12:41:09;10.07;;;5.07;;
12445;SDS011;6287;50.984;7.022;2023-10-08T12:43:41;10.43;;;4.78;;
12445;SDS011;6287;50.984;7.022;2023-10-08T12:46:13;9.77;;;5.28;;
12445;SDS011;6287;50.984;7.022;2023-10-08T12:48:45;10.30;;;5.63;;
12445;SDS011;6287;50.984;7.022;2023-10-08T12:51:16;11.48;;;4.80;;
12445;SDS011;6287;50.984;7.022;2023-10-08T12:53:42;10.30;;;5.57;;
12445;SDS011;6287;50.984;7.022;2023-10-08T12:56:16;8.07;;;4.82;;
12445;SDS011;6287;50.984;7.022;2023-10-08T12:58:46;13.00;;;5.78;;
12445;SDS011;6287;50.984;7.022;2023-10-08T13:01:18;14.35;;;5.70;;
12445;SDS011;6287;50.984;7.022;2023-10-08T13:03:47;11.85;;;5.43;;
12445;SDS011;6287;50.984;7.022;2023-10-08T13:06:17;12.32;;;5.10;;
12445;SDS011;6287;50.984;7.022;2023-10-08T13:08:47;11.68;;;5.15;;
12445;SDS011;6287;50.984;7.022;2023-10-08T13:11:21;10.73;;;5.03;;
12445;SDS011;6287;50.984;7.022;2023-10-08T13:13:54;11.50;;;5.95;;
12445;SDS011;6287;50.984;7.022;2023-10-08T13:16:25;14.82;;;6.47;;
12445;SDS011;6287;50.984;7.022;2023-10-08T13:18:56;15.35;;;6.40;;
12445;SDS011;6287;50.984;7.022;2023-10-08T13:21:23;12.13;;;6.03;;
12445;SDS011;6287;50.984;7.022;2023-10-08T13:23:52;12.07;;;5.55;;
12445;SDS011;6287;50.984;7.022;2023-10-08T13:26:25;14.45;;;6.32;;
12445;SDS011;6287;50.984;7.022;2023-10-08T13:28:56;9.50;;;5.60;;
12445;SDS011;6287;50.984;7.022;2023-10-08T13:31:25;12.23;;;6.55;;
12445;SDS011;6287;50.984;7.022;2023-10-08T13:33:51;13.73;;;6.65;;
12445;SDS011;6287;50.984;7.022;2023-10-08T13:36:24;9.82;;;5.60;;
12445;SDS011;6287;50.984;7.022;2023-10-08T13:38:52;10.82;;;5.60;;
12445;SDS011;6287;50.984;7.022;2023-10-08T13:41:22;12.75;;;5.90;;
12445;SDS011;6287;50.984;7.022;2023-10-08T13:43:54;11.43;;;5.50;;
12445;SDS011;6287;50.984;7.022;2023-10-08T13:46:30;10.80;;;7.30;;
12445;SDS011;6287;50.984;7.022;2023-10-08T13:48:58;11.32;;;6.43;;
12445;SDS011;6287;50.984;7.022;2023-10-08T13:51:26;9.60;;;5.70;;
12445;SDS011;6287;50.984;7.022;2023-10-08T13:53:52;11.35;;;6.55;;
12445;SDS011;6287;50.984;7.022;2023-10-08T13:56:27;11.75;;;6.30;;
12445;SDS011;6287;50.984;7.022;2023-10-08T13:58:56;11.00;;;6.00;;
12445;SDS011;6287;50.984;7.022;2023-10-08T14:01:38;12.05;;;6.45;;
12445;SDS011;6287;50.984;7.022;2023-10-08T14:04:08;9.95;;;5.38;;
12445;SDS011;6287;50.984;7.022;2023-10-08T14:06:38;10.27;;;4.85;;
12445;SDS011;6287;50.984;7.022;2023-10-08T14:09:07;11.25;;;5.55;;
12445;SDS011;6287;50.984;7.022;2023-10-08T14:11:37;15.82;;;5.88;;
12445;SDS011;6287;50.984;7.022;2023-10-08T14:14:04;10.38;;;5.63;;
12445;SDS011;6287;50.984;7.022;2023-10-08T14:16:38;11.52;;;5.65;;
12445;SDS011;6287;50.984;7.022;2023-10-08T14:19:12;7.18;;;5.40;;
12445;SDS011;6287;50.984;7.022;2023-10-08T14:21:41;12.02;;;5.82;;
12445;SDS011;6287;50.984;7.022;2023-10-08T14:24:27;12.13;;;5.85;;
12445;SDS011;6287;50.984;7.022;2023-10-08T14:27:00;13.15;;;6.13;;
12445;SDS011;6287;50.984;7.022;2023-10-08T14:29:28;14.73;;;6.15;;
12445;SDS011;6287;50.984;7.022;2023-10-08T14:31:54;10.40;;;5.68;;
12445;SDS011;6287;50.984;7.022;2023-10-08T14:34:21;11.50;;;6.70;;
12445;SDS011;6287;50.984;7.022;2023-10-08T14:37:08;12.07;;;6.30;;
12445;SDS011;6287;50.984;7.022;2023-10-08T14:39:55;10.50;;;5.68;;
12445;SDS011;6287;50.984;7.022;2023-10-08T14:42:39;12.02;;;6.03;;
12445;SDS011;6287;50.984;7.022;2023-10-08T14:45:21;13.85;;;6.40;;
12445;SDS011;6287;50.984;7.022;2023-10-08T14:48:02;10.18;;;6.07;;
12445;SDS011;6287;50.984;7.022;2023-10-08T14:50:32;9.85;;;5.50;;
12445;SDS011;6287;50.984;7.022;2023-10-08T14:53:00;12.10;;;5.95;;
12445;SDS011;6287;50.984;7.022;2023-10-08T14:55:29;12.45;;;5.75;;
12445;SDS011;6287;50.984;7.022;2023-10-08T14:57:56;11.73;;;6.20;;
12445;SDS011;6287;50.984;7.022;2023-10-08T15:00:21;11.75;;;5.32;;
12445;SDS011;6287;50.984;7.022;2023-10-08T15:02:56;9.18;;;5.65;;
12445;SDS011;6287;50.984;7.022;2023-10-08T15:05:27;11.45;;;5.57;;
12445;SDS011;6287;50.984;7.022;2023-10-08T15:07:53;9.50;;;5.60;;
12445;SDS011;6287;50.984;7.022;2023-10-08T15:10:26;12.65;;;6.65;;
12445;SDS011;6287;50.984;7.022;2023-10-08T15:12:55;10.40;;;5.30;;
12445;SDS011;6287;50.984;7.022;2023-10-08T15:15:22;9.82;;;6.32;;
12445;SDS011;6287;50.984;7.022;2023-10-08T15:17:50;9.82;;;5.55;;
12445;SDS011;6287;50.984;7.022;2023-10-08T15:20:19;9.68;;;5.57;;
12445;SDS011;6287;50.984;7.022;2023-10-08T15:22:45;9.18;;;5.60;;
12445;SDS011;6287;50.984;7.022;2023-10-08T15:25:14;12.95;;;6.35;;
12445;SDS011;6287;50.984;7.022;2023-10-08T15:27:43;11.75;;;6.18;;
12445;SDS011;6287;50.984;7.022;2023-10-08T15:30:11;11.35;;;5.75;;
12445;SDS011;6287;50.984;7.022;2023-10-08T15:32:41;11.27;;;5.93;;
12445;SDS011;6287;50.984;7.022;2023-10-08T15:35:14;10.13;;;5.90;;
12445;SDS011;6287;50.984;7.022;2023-10-08T15:37:44;12.75;;;5.75;;
12445;SDS011;6287;50.984;7.022;2023-10-08T15:40:10;9.07;;;5.50;;
12445;SDS011;6287;50.984;7.022;2023-10-08T15:42:48;11.60;;;6.82;;
12445;SDS011;6287;50.984;7.022;2023-10-08T15:45:20;10.68;;;5.50;;
12445;SDS011;6287;50.984;7.022;2023-10-08T15:47:50;13.18;;;6.20;;
12445;SDS011;6287;50.984;7.022;2023-10-08T15:50:19;13.02;;;6.65;;
12445;SDS011;6287;50.984;7.022;2023-10-08T15:52:49;12.73;;;5.85;;